createdAt,value
2022-09-16T00:01:50.080Z,98.01
2022-09-16T00:04:17.797Z,98.28
2022-09-16T00:06:44.239Z,96.43
2022-09-16T00:09:10.702Z,96.91
2022-09-16T00:11:37.177Z,100.00
2022-09-16T00:14:04.544Z,100.00
2022-09-16T00:16:31.079Z,100.00
2022-09-16T00:19:00.629Z,100.00
2022-09-16T00:21:28.549Z,100.00
2022-09-16T00:23:58.512Z,100.00
2022-09-16T00:26:25.936Z,100.00
2022-09-16T00:28:52.365Z,100.00
2022-09-16T00:31:18.871Z,100.00
2022-09-16T00:33:45.345Z,100.00
2022-09-16T00:36:15.113Z,100.00
2022-09-16T00:38:42.623Z,100.00
2022-09-16T00:41:15.556Z,100.00
2022-09-16T00:43:53.850Z,100.00
2022-09-16T00:46:43.098Z,100.00
2022-09-16T00:49:20.589Z,100.00
2022-09-16T00:51:50.061Z,100.00
2022-09-16T00:54:20.436Z,100.00
2022-09-16T00:56:51.170Z,100.00
2022-09-16T00:59:27.326Z,100.00
2022-09-16T01:01:56.606Z,100.00
2022-09-16T01:04:29.568Z,100.00
2022-09-16T01:06:56.710Z,100.00
2022-09-16T01:09:25.595Z,100.00
2022-09-16T01:11:52.104Z,100.00
2022-09-16T01:14:39.964Z,100.00
2022-09-16T01:17:32.561Z,100.00
2022-09-16T01:20:17.933Z,100.00
2022-09-16T01:23:05.796Z,100.00
2022-09-16T01:25:58.543Z,100.00
2022-09-16T01:28:45.979Z,100.00
2022-09-16T01:31:18.424Z,100.00
2022-09-16T01:33:59.775Z,100.00
2022-09-16T01:36:47.414Z,100.00
2022-09-16T01:39:27.986Z,100.00
2022-09-16T01:42:37.251Z,100.00
2022-09-16T01:45:12.646Z,100.00
2022-09-16T01:47:56.068Z,100.00
2022-09-16T01:50:28.533Z,100.00
2022-09-16T01:53:05.549Z,100.00
2022-09-16T01:55:38.047Z,100.00
2022-09-16T01:58:14.086Z,100.00
2022-09-16T02:00:42.985Z,100.00
2022-09-16T02:03:14.031Z,100.00
2022-09-16T02:06:01.182Z,100.00
2022-09-16T02:08:34.509Z,100.00
2022-09-16T02:11:05.391Z,100.00
2022-09-16T02:13:51.685Z,100.00
2022-09-16T02:16:31.309Z,100.00
2022-09-16T02:19:05.334Z,100.00
2022-09-16T02:21:34.625Z,100.00
2022-09-16T02:24:05.396Z,100.00
2022-09-16T02:26:36.890Z,100.00
2022-09-16T02:29:08.065Z,100.00
2022-09-16T02:31:37.479Z,100.00
2022-09-16T02:34:13.474Z,100.00
2022-09-16T02:36:44.262Z,100.00
2022-09-16T02:39:16.216Z,100.00
2022-09-16T02:41:42.901Z,100.00
2022-09-16T02:44:10.737Z,100.00
2022-09-16T02:46:56.094Z,100.00
2022-09-16T02:49:25.562Z,100.00
2022-09-16T02:52:17.875Z,100.00
2022-09-16T02:54:55.310Z,100.00
2022-09-16T02:57:22.475Z,100.00
2022-09-16T02:59:49.924Z,100.00
2022-09-16T03:02:16.478Z,100.00
2022-09-16T03:04:42.979Z,100.00
2022-09-16T03:07:11.372Z,100.00
2022-09-16T03:09:42.586Z,100.00
2022-09-16T03:12:27.729Z,100.00
2022-09-16T03:14:59.929Z,100.00
2022-09-16T03:17:35.065Z,100.00
2022-09-16T03:20:20.277Z,100.00
2022-09-16T03:22:55.749Z,100.00
2022-09-16T03:25:37.406Z,100.00
2022-09-16T03:28:09.795Z,100.00
2022-09-16T03:30:44.298Z,100.00
2022-09-16T03:33:25.388Z,100.00
2022-09-16T03:35:55.802Z,100.00
2022-09-16T03:38:23.104Z,100.00
2022-09-16T03:40:50.513Z,100.00
2022-09-16T03:43:17.527Z,100.00
2022-09-16T03:45:44.444Z,100.00
2022-09-16T03:48:12.788Z,100.00
2022-09-16T03:50:39.277Z,100.00
2022-09-16T03:53:05.771Z,100.00
2022-09-16T03:55:32.187Z,100.00
2022-09-16T03:57:58.585Z,100.00
2022-09-16T04:00:25.118Z,100.00
2022-09-16T04:02:51.566Z,100.00
2022-09-16T04:05:18.030Z,100.00
2022-09-16T04:07:44.666Z,100.00
2022-09-16T04:10:12.315Z,100.00
2022-09-16T04:12:38.813Z,100.00
2022-09-16T04:15:05.841Z,100.00
2022-09-16T04:17:32.754Z,100.00
2022-09-16T04:19:59.360Z,100.00
2022-09-16T04:22:28.176Z,100.00
2022-09-16T04:24:54.482Z,100.00
2022-09-16T04:27:20.804Z,100.00
2022-09-16T04:29:47.207Z,100.00
2022-09-16T04:32:13.498Z,100.00
2022-09-16T04:34:39.841Z,100.00
2022-09-16T04:37:06.124Z,100.00
2022-09-16T04:39:32.660Z,100.00
2022-09-16T04:41:59.871Z,100.00
2022-09-16T04:44:27.033Z,100.00
2022-09-16T04:46:53.413Z,100.00
2022-09-16T04:49:19.695Z,100.00
2022-09-16T04:51:46.026Z,100.00
2022-09-16T04:54:12.398Z,100.00
2022-09-16T04:56:38.845Z,100.00
2022-09-16T04:59:05.593Z,100.00
2022-09-16T05:01:33.487Z,100.00
2022-09-16T05:04:04.005Z,100.00
2022-09-16T05:06:32.190Z,100.00
2022-09-16T05:09:00.228Z,100.00
2022-09-16T05:11:27.784Z,100.00
2022-09-16T05:13:54.777Z,100.00
2022-09-16T05:16:23.068Z,100.00
2022-09-16T05:18:50.313Z,100.00
2022-09-16T05:21:18.190Z,100.00
2022-09-16T05:23:46.885Z,100.00
2022-09-16T05:26:23.835Z,100.00
2022-09-16T05:28:53.469Z,100.00
2022-09-16T05:31:26.932Z,100.00
2022-09-16T05:33:57.657Z,100.00
2022-09-16T05:36:24.608Z,100.00
2022-09-16T05:39:18.324Z,100.00
2022-09-16T05:41:37.734Z,100.00
2022-09-16T05:44:04.207Z,100.00
2022-09-16T05:46:30.643Z,100.00
2022-09-16T05:48:57.045Z,100.00
2022-09-16T05:51:24.233Z,100.00
2022-09-16T05:53:50.957Z,100.00
2022-09-16T05:56:18.524Z,100.00
2022-09-16T05:58:46.465Z,100.00
2022-09-16T06:01:14.043Z,100.00
2022-09-16T06:03:40.972Z,100.00
2022-09-16T06:06:19.661Z,100.00
2022-09-16T06:08:45.965Z,100.00
2022-09-16T06:11:12.773Z,100.00
2022-09-16T06:13:39.785Z,100.00
2022-09-16T06:16:06.913Z,99.30
2022-09-16T06:18:34.248Z,100.00
2022-09-16T06:21:06.845Z,100.00
2022-09-16T06:23:34.176Z,100.00
2022-09-16T06:26:21.981Z,100.00
2022-09-16T06:28:49.497Z,100.00
2022-09-16T06:31:18.848Z,100.00
2022-09-16T06:33:45.834Z,100.00
2022-09-16T06:36:18.280Z,100.00
2022-09-16T06:38:45.923Z,100.00
2022-09-16T06:41:14.245Z,100.00
2022-09-16T06:43:40.936Z,100.00
2022-09-16T06:46:13.703Z,100.00
2022-09-16T06:48:42.154Z,100.00
2022-09-16T06:51:29.896Z,100.00
2022-09-16T06:54:02.251Z,100.00
2022-09-16T06:56:28.667Z,100.00
2022-09-16T06:58:55.774Z,100.00
2022-09-16T07:01:28.253Z,100.00
2022-09-16T07:03:56.461Z,100.00
2022-09-16T07:06:37.290Z,100.00
2022-09-16T07:09:11.129Z,100.00
2022-09-16T07:11:37.609Z,100.00
2022-09-16T07:14:04.881Z,100.00
2022-09-16T07:16:31.570Z,100.00
2022-09-16T07:19:01.156Z,100.00
2022-09-16T07:21:30.079Z,100.00
2022-09-16T07:23:58.725Z,100.00
2022-09-16T07:26:28.552Z,100.00
2022-09-16T07:28:58.190Z,100.00
2022-09-16T07:31:28.276Z,100.00
2022-09-16T07:34:01.328Z,100.00
2022-09-16T07:36:36.548Z,100.00
2022-09-16T07:39:04.471Z,100.00
2022-09-16T07:41:33.936Z,100.00
2022-09-16T07:44:01.891Z,100.00
2022-09-16T07:46:31.484Z,100.00
2022-09-16T07:48:59.908Z,100.00
2022-09-16T07:51:28.191Z,100.00
2022-09-16T07:53:59.230Z,100.00
2022-09-16T07:56:28.931Z,100.00
2022-09-16T07:58:56.252Z,100.00
2022-09-16T08:01:23.130Z,100.00
2022-09-16T08:03:50.053Z,100.00
2022-09-16T08:06:23.104Z,100.00
2022-09-16T08:08:53.058Z,100.00
2022-09-16T08:11:19.952Z,100.00
2022-09-16T08:13:46.518Z,100.00
2022-09-16T08:16:13.059Z,100.00
2022-09-16T08:18:40.020Z,100.00
2022-09-16T08:21:08.281Z,100.00
2022-09-16T08:23:36.439Z,100.00
2022-09-16T08:26:03.865Z,100.00
2022-09-16T08:28:40.004Z,100.00
2022-09-16T08:31:19.497Z,100.00
2022-09-16T08:33:46.062Z,100.00
2022-09-16T08:36:19.703Z,100.00
2022-09-16T08:38:47.881Z,100.00
2022-09-16T08:41:17.169Z,100.00
2022-09-16T08:44:04.091Z,100.00
2022-09-16T08:46:36.484Z,100.00
2022-09-16T08:49:36.028Z,100.00
2022-09-16T08:52:13.340Z,100.00
2022-09-16T08:54:47.715Z,100.00
2022-09-16T08:57:19.509Z,100.00
2022-09-16T08:59:51.709Z,100.00
2022-09-16T09:05:31.671Z,100.00
2022-09-16T09:08:23.153Z,100.00
2022-09-16T09:10:57.864Z,98.99
2022-09-16T09:14:02.401Z,100.00
2022-09-16T09:16:44.288Z,100.00
2022-09-16T09:19:38.895Z,100.00
2022-09-16T09:22:31.812Z,95.53
2022-09-16T09:25:41.970Z,98.54
2022-09-16T09:28:27.126Z,97.77
2022-09-16T09:31:13.246Z,99.50
2022-09-16T09:34:13.408Z,97.22
2022-09-16T09:36:57.342Z,95.27
2022-09-16T09:39:48.807Z,94.26
2022-09-16T09:42:27.848Z,94.87
2022-09-16T09:45:05.040Z,95.59
2022-09-16T09:47:42.653Z,94.41
2022-09-16T09:50:18.874Z,95.22
2022-09-16T09:52:57.877Z,95.42
2022-09-16T09:55:27.565Z,95.13
2022-09-16T09:58:01.817Z,96.40
2022-09-16T10:00:28.615Z,94.28
2022-09-16T10:03:04.847Z,94.59
2022-09-16T10:05:31.473Z,95.32
2022-09-16T10:08:21.438Z,93.86
2022-09-16T10:10:51.353Z,95.62
2022-09-16T10:13:19.499Z,93.76
2022-09-16T10:15:49.732Z,98.37
2022-09-16T10:18:30.033Z,95.79
2022-09-16T10:21:17.072Z,97.13
2022-09-16T10:23:57.326Z,99.53
2022-09-16T10:26:28.485Z,100.00
2022-09-16T10:28:57.749Z,100.00
2022-09-16T10:31:29.232Z,99.34
2022-09-16T10:34:00.370Z,96.43
2022-09-16T10:36:32.202Z,96.86
2022-09-16T10:39:04.390Z,96.26
2022-09-16T10:41:42.455Z,94.66
2022-09-16T10:44:17.594Z,95.16
2022-09-16T10:46:58.418Z,96.39
2022-09-16T10:49:32.510Z,90.52
2022-09-16T10:52:29.617Z,92.85
2022-09-16T10:54:56.778Z,93.64
2022-09-16T10:57:30.343Z,94.26
2022-09-16T11:00:12.243Z,91.76
2022-09-16T11:03:06.251Z,94.34
2022-09-16T11:05:50.969Z,92.19
2022-09-16T11:08:36.026Z,91.07
2022-09-16T11:11:22.946Z,93.10
2022-09-16T11:14:14.172Z,92.90
2022-09-16T11:17:03.547Z,95.43
2022-09-16T11:20:02.385Z,94.03
2022-09-16T11:22:43.517Z,93.67
2022-09-16T11:25:38.048Z,91.06
2022-09-16T11:28:42.352Z,92.42
2022-09-16T11:31:27.636Z,91.31
2022-09-16T11:34:14.301Z,89.85
2022-09-16T11:37:10.475Z,87.70
2022-09-16T11:40:01.518Z,86.68
2022-09-16T11:42:35.072Z,89.01
2022-09-16T11:45:31.012Z,87.61
2022-09-16T11:48:00.415Z,83.88
2022-09-16T11:50:51.749Z,81.12
2022-09-16T11:53:33.504Z,77.54
2022-09-16T11:56:10.980Z,77.34
2022-09-16T11:58:46.936Z,75.94
2022-09-16T12:01:34.590Z,78.22
2022-09-16T12:04:34.977Z,73.12
2022-09-16T12:07:17.599Z,72.72
2022-09-16T12:09:50.548Z,71.33
2022-09-16T12:12:22.267Z,69.07
2022-09-16T12:14:54.785Z,66.31
2022-09-16T12:17:26.418Z,69.83
2022-09-16T12:20:15.609Z,65.07
2022-09-16T12:22:50.410Z,68.07
2022-09-16T12:25:28.989Z,67.15
2022-09-16T12:28:15.774Z,63.97
2022-09-16T12:30:46.360Z,65.61
2022-09-16T12:33:27.764Z,64.41
2022-09-16T12:36:03.868Z,65.76
2022-09-16T12:38:30.948Z,67.76
2022-09-16T12:41:34.863Z,65.74
2022-09-16T12:44:38.844Z,69.29
2022-09-16T12:47:38.254Z,68.51
2022-09-16T12:50:35.042Z,69.45
2022-09-16T12:53:16.649Z,70.94
2022-09-16T12:55:49.557Z,71.12
2022-09-16T12:58:37.815Z,69.62
2022-09-16T13:01:26.866Z,67.24
2022-09-16T13:04:18.598Z,69.06
2022-09-16T13:06:48.937Z,69.69
2022-09-16T13:09:23.455Z,68.67
2022-09-16T13:14:55.109Z,66.28
2022-09-16T13:17:33.043Z,64.75
2022-09-16T13:20:17.259Z,65.99
2022-09-16T13:22:55.906Z,62.48
2022-09-16T13:25:22.607Z,65.50
2022-09-16T13:28:28.077Z,62.54
2022-09-16T13:30:54.999Z,61.72
2022-09-16T13:33:28.997Z,59.88
2022-09-16T13:36:13.336Z,59.27
2022-09-16T13:38:46.846Z,61.15
2022-09-16T13:41:14.337Z,62.17
2022-09-16T13:43:43.505Z,60.88
2022-09-16T13:46:16.142Z,62.46
2022-09-16T13:48:56.700Z,62.91
2022-09-16T13:51:23.445Z,63.57
2022-09-16T13:53:53.258Z,63.65
2022-09-16T13:56:48.566Z,62.71
2022-09-16T13:59:24.194Z,62.41
2022-09-16T14:02:15.187Z,62.72
2022-09-16T14:05:05.682Z,64.36
2022-09-16T14:08:26.619Z,64.99
2022-09-16T14:11:06.570Z,66.48
2022-09-16T14:13:39.495Z,65.09
2022-09-16T14:16:14.374Z,64.43
2022-09-16T14:18:43.177Z,64.72
2022-09-16T14:21:27.615Z,64.06
2022-09-16T14:26:25.398Z,58.88
2022-09-16T14:29:02.394Z,60.74
2022-09-16T14:31:31.699Z,61.46
2022-09-16T14:34:04.573Z,62.55
2022-09-16T14:36:35.156Z,64.84
2022-09-16T14:39:07.663Z,64.88
2022-09-16T14:41:39.482Z,64.57
2022-09-16T14:44:22.645Z,60.66
2022-09-16T14:47:04.801Z,60.11
2022-09-16T14:49:37.670Z,60.24
2022-09-16T14:52:04.709Z,61.59
2022-09-16T14:54:31.609Z,59.54
2022-09-16T14:57:03.567Z,59.26
2022-09-16T14:59:36.732Z,59.04
2022-09-16T15:02:14.502Z,59.40
2022-09-16T15:04:45.345Z,59.51
2022-09-16T15:07:20.217Z,60.94
2022-09-16T15:09:59.860Z,62.28
2022-09-16T15:12:33.518Z,61.90
2022-09-16T15:15:05.533Z,64.13
2022-09-16T15:17:32.297Z,66.87
2022-09-16T15:19:59.817Z,67.61
2022-09-16T15:22:27.768Z,68.21
2022-09-16T15:24:58.334Z,71.83
2022-09-16T15:27:28.179Z,66.80
2022-09-16T15:30:00.563Z,66.35
2022-09-16T15:32:31.495Z,68.51
2022-09-16T15:35:17.911Z,67.83
2022-09-16T15:37:44.340Z,67.78
2022-09-16T15:40:33.662Z,68.22
2022-09-16T15:43:30.450Z,67.90
2022-09-16T15:46:00.076Z,69.33
2022-09-16T15:48:31.622Z,68.71
2022-09-16T15:51:07.887Z,68.49
2022-09-16T15:53:41.831Z,68.42
2022-09-16T15:56:20.481Z,67.86
2022-09-16T15:58:48.808Z,70.00
2022-09-16T16:01:37.217Z,68.24
2022-09-16T16:04:07.749Z,68.02
2022-09-16T16:06:49.236Z,66.54
2022-09-16T16:09:27.783Z,67.27
2022-09-16T16:11:59.704Z,67.76
2022-09-16T16:14:33.067Z,66.43
2022-09-16T16:17:13.149Z,67.07
2022-09-16T16:19:45.762Z,66.89
2022-09-16T16:22:13.584Z,66.97
2022-09-16T16:24:40.547Z,67.41
2022-09-16T16:27:08.358Z,66.92
2022-09-16T16:29:34.970Z,66.03
2022-09-16T16:32:13.881Z,65.33
2022-09-16T16:34:42.738Z,64.97
2022-09-16T16:37:19.198Z,65.85
2022-09-16T16:39:54.769Z,65.38
2022-09-16T16:42:23.000Z,65.93
2022-09-16T16:44:49.920Z,66.24
2022-09-16T16:47:16.776Z,68.31
2022-09-16T16:49:46.170Z,66.56
2022-09-16T16:52:14.635Z,66.96
2022-09-16T16:54:43.245Z,67.14
2022-09-16T16:57:10.665Z,67.86
2022-09-16T16:59:37.097Z,69.37
2022-09-16T17:02:04.225Z,73.26
2022-09-16T17:04:30.736Z,75.79
2022-09-16T17:07:14.800Z,74.77
2022-09-16T17:09:44.155Z,76.58
2022-09-16T17:12:10.646Z,76.72
2022-09-16T17:14:37.141Z,78.42
2022-09-16T17:17:03.648Z,78.63
2022-09-16T17:19:30.901Z,77.50
2022-09-16T17:21:57.699Z,79.20
2022-09-16T17:24:24.222Z,80.38
2022-09-16T17:26:50.663Z,82.78
2022-09-16T17:29:17.180Z,80.37
2022-09-16T17:31:44.501Z,81.00
2022-09-16T17:34:15.548Z,88.18
2022-09-16T17:36:45.364Z,87.24
2022-09-16T17:39:17.790Z,91.85
2022-09-16T17:41:45.917Z,86.47
2022-09-16T17:44:13.717Z,90.69
2022-09-16T17:46:41.919Z,88.70
2022-09-16T17:49:14.432Z,91.98
2022-09-16T17:51:41.146Z,89.66
2022-09-16T17:54:08.719Z,91.60
2022-09-16T17:56:35.924Z,92.32
2022-09-16T17:59:02.333Z,91.72
2022-09-16T18:01:30.642Z,92.93
2022-09-16T18:03:57.902Z,94.46
2022-09-16T18:06:28.333Z,90.18
2022-09-16T18:08:55.235Z,92.73
2022-09-16T18:11:22.073Z,92.93
2022-09-16T18:13:53.379Z,93.16
2022-09-16T18:16:21.181Z,93.67
2022-09-16T18:18:51.572Z,91.09
2022-09-16T18:21:19.806Z,92.89
2022-09-16T18:23:50.405Z,91.88
2022-09-16T18:26:18.648Z,90.71
2022-09-16T18:29:08.541Z,91.59
2022-09-16T18:31:34.772Z,91.50
2022-09-16T18:34:01.164Z,90.71
2022-09-16T18:36:30.058Z,90.73
2022-09-16T18:38:57.704Z,90.28
2022-09-16T18:41:29.396Z,92.04
2022-09-16T18:43:57.503Z,92.36
2022-09-16T18:46:27.017Z,92.82
2022-09-16T18:48:54.111Z,93.51
2022-09-16T18:51:32.805Z,91.97
2022-09-16T18:54:02.200Z,92.04
2022-09-16T18:56:32.009Z,94.17
2022-09-16T19:01:52.117Z,94.63
2022-09-16T19:04:21.240Z,97.50
2022-09-16T19:06:49.640Z,96.03
2022-09-16T19:09:18.744Z,96.35
2022-09-16T19:11:45.190Z,97.09
2022-09-16T19:14:13.838Z,97.06
2022-09-16T19:16:42.009Z,97.65
2022-09-16T19:19:10.234Z,95.33
2022-09-16T19:21:37.336Z,94.34
2022-09-16T19:24:06.756Z,96.51
2022-09-16T19:26:36.085Z,94.62
2022-09-16T19:29:06.875Z,93.56
2022-09-16T19:31:35.205Z,94.55
2022-09-16T19:34:01.876Z,96.09
2022-09-16T19:36:30.546Z,96.05
2022-09-16T19:38:58.216Z,94.37
2022-09-16T19:41:27.244Z,91.23
2022-09-16T19:43:55.236Z,91.01
2022-09-16T19:46:22.136Z,93.69
2022-09-16T19:48:49.424Z,92.09
2022-09-16T19:51:18.174Z,94.18
2022-09-16T19:53:46.547Z,92.37
2022-09-16T19:56:16.450Z,91.95
2022-09-16T19:58:42.928Z,93.67
2022-09-16T20:01:18.211Z,92.45
2022-09-16T20:03:45.720Z,93.30
2022-09-16T20:06:17.398Z,93.30
2022-09-16T20:08:44.669Z,93.28
2022-09-16T20:11:17.366Z,93.24
2022-09-16T20:13:50.590Z,94.28
2022-09-16T20:16:17.977Z,93.95
2022-09-16T20:18:44.554Z,93.82
2022-09-16T20:21:12.360Z,93.30
2022-09-16T20:23:38.869Z,93.88
2022-09-16T20:26:07.631Z,94.90
2022-09-16T20:28:37.816Z,94.53
2022-09-16T20:31:05.101Z,93.84
2022-09-16T20:33:33.492Z,94.52
2022-09-16T20:36:03.870Z,93.98
2022-09-16T20:38:30.949Z,94.19
2022-09-16T20:40:57.699Z,93.85
2022-09-16T20:43:24.124Z,94.20
2022-09-16T20:45:50.510Z,93.89
2022-09-16T20:48:16.895Z,93.49
2022-09-16T20:50:43.233Z,93.64
2022-09-16T20:53:10.228Z,92.52
2022-09-16T20:55:36.642Z,93.03
2022-09-16T20:58:02.960Z,92.24
2022-09-16T21:00:29.594Z,92.41
2022-09-16T21:02:57.185Z,91.92
2022-09-16T21:05:23.513Z,93.04
2022-09-16T21:07:50.002Z,92.33
2022-09-16T21:10:16.747Z,92.16
2022-09-16T21:12:43.065Z,91.37
2022-09-16T21:15:09.681Z,91.28
2022-09-16T21:17:36.448Z,92.03
2022-09-16T21:20:02.855Z,92.34
2022-09-16T21:22:29.155Z,92.72
2022-09-16T21:24:55.553Z,92.77
2022-09-16T21:27:21.832Z,92.23
2022-09-16T21:29:50.497Z,92.13
2022-09-16T21:32:16.882Z,92.17
2022-09-16T21:34:43.171Z,92.56
2022-09-16T21:37:09.493Z,91.85
2022-09-16T21:39:35.808Z,92.82
2022-09-16T21:42:02.164Z,92.98
2022-09-16T21:44:28.468Z,93.60
2022-09-16T21:46:54.810Z,92.89
2022-09-16T21:49:25.421Z,92.67
2022-09-16T21:51:52.789Z,92.13
2022-09-16T21:54:20.529Z,92.79
2022-09-16T21:56:47.693Z,93.32
2022-09-16T21:59:14.425Z,92.95
2022-09-16T22:01:40.808Z,92.76
2022-09-16T22:04:10.849Z,92.69
2022-09-16T22:06:37.171Z,92.36
2022-09-16T22:09:06.888Z,92.64
2022-09-16T22:11:34.165Z,92.48
2022-09-16T22:14:01.581Z,92.83
2022-09-16T22:16:29.779Z,92.85
2022-09-16T22:18:57.926Z,92.61
2022-09-16T22:21:25.949Z,92.66
2022-09-16T22:23:52.392Z,92.26
2022-09-16T22:26:19.676Z,92.83
2022-09-16T22:28:46.494Z,92.78
2022-09-16T22:31:17.204Z,92.93
2022-09-16T22:33:44.741Z,93.09
2022-09-16T22:36:15.577Z,93.68
2022-09-16T22:38:46.571Z,93.28
2022-09-16T22:41:13.142Z,93.34
2022-09-16T22:43:40.592Z,93.69
2022-09-16T22:46:08.352Z,93.80
2022-09-16T22:48:34.741Z,94.36
2022-09-16T22:51:01.832Z,94.23
2022-09-16T22:53:29.193Z,94.01
2022-09-16T22:55:56.707Z,93.38
2022-09-16T22:58:23.440Z,93.29
2022-09-16T23:00:50.356Z,93.22
2022-09-16T23:03:16.680Z,93.46
2022-09-16T23:05:43.092Z,93.53
2022-09-16T23:08:09.537Z,93.70
2022-09-16T23:10:39.004Z,94.13
2022-09-16T23:13:05.325Z,94.29
2022-09-16T23:15:31.644Z,93.97
2022-09-16T23:17:57.973Z,94.40
2022-09-16T23:20:24.315Z,94.15
2022-09-16T23:22:50.623Z,93.74
2022-09-16T23:25:16.956Z,93.91
2022-09-16T23:27:43.261Z,94.62
2022-09-16T23:30:09.815Z,95.21
2022-09-16T23:32:36.151Z,94.78
2022-09-16T23:35:03.338Z,94.31
2022-09-16T23:37:29.625Z,94.80
2022-09-16T23:39:56.263Z,94.97
2022-09-16T23:42:22.595Z,95.64
2022-09-16T23:44:48.922Z,96.00
2022-09-16T23:47:15.286Z,95.99
2022-09-16T23:49:41.592Z,96.51
2022-09-16T23:52:08.339Z,96.69
2022-09-16T23:54:34.856Z,96.89
2022-09-16T23:57:01.169Z,97.46
2022-09-16T23:59:27.476Z,97.44
